KBYY

Details ICAO KBYY
Name BAY CITY MUNI
Region United States
Timezone America/Chicago (UTC-5.0)
Plans Departing 2
Arriving 2
Stats Elevation 45 ft / 14 m (AMSL)
Location 28.973246° -95.863453°
Runways 1
Magnetic Variation 2.749° E
Sunrise 2018-05-22 11:29:49 UTC / 2018-05-22 06:29:49 Local
Sunset 2018-05-23 01:13:19 UTC / 2018-05-22 20:13:19 Local
Advertisement - Login to hide

Runways

ID Width Length Bearing (true) Bearing (mag) Surface Threshold Offset Overrun Length
13 75 ft / 23 m 5,111 ft / 1,558 m 133.71° 130.96° Asphalt 0 ft / 0 m 0 ft / 0 m
31 75 ft / 23 m 5,111 ft / 1,558 m 313.72° 310.97° Asphalt 0 ft / 0 m 0 ft / 0 m

Map

Weather


0- 5 10 15 20 25 30 35+ Temperature / ° C

Clouds and Precipitation
Forecast for 2018-05-22 12:00 UTC. Updated 36 minutes ago

Ground ~20,000 ft ~40,000 ft Winds

METAR

KBYY 221135Z AUTO 00000KT 7SM CLR 22/22 A2995 RMK AO2 T02210221

TAF

Not found

Frequencies

Recorded 118.07 MHz AWOS 3
Unicom 122.80 MHz CTAF/UNICOM
Warning: Do not use this data for real-world aviation or navigation. No guarantee of current accuracy is given.